sensor_id;sensor_type;location;lat;lon;timestamp;temperature;humidity
64226;DHT22;50545;56.064;26.178;2022-10-26T00:01:08;10.90;99.90
64226;DHT22;50545;56.064;26.178;2022-10-26T00:03:37;10.80;99.90
64226;DHT22;50545;56.064;26.178;2022-10-26T00:06:10;10.70;99.90
64226;DHT22;50545;56.064;26.178;2022-10-26T00:08:38;10.60;99.90
64226;DHT22;50545;56.064;26.178;2022-10-26T00:11:06;10.50;99.90
64226;DHT22;50545;56.064;26.178;2022-10-26T00:13:35;10.50;99.90
64226;DHT22;50545;56.064;26.178;2022-10-26T00:16:10;10.40;99.90
64226;DHT22;50545;56.064;26.178;2022-10-26T00:18:38;10.40;99.90
64226;DHT22;50545;56.064;26.178;2022-10-26T00:21:06;10.30;99.90
64226;DHT22;50545;56.064;26.178;2022-10-26T00:23:34;10.30;99.90
64226;DHT22;50545;56.064;26.178;2022-10-26T00:26:01;10.20;99.90
64226;DHT22;50545;56.064;26.178;2022-10-26T00:28:29;10.20;99.90
64226;DHT22;50545;56.064;26.178;2022-10-26T00:31:00;10.10;99.90
64226;DHT22;50545;56.064;26.178;2022-10-26T00:33:28;10.10;99.90
64226;DHT22;50545;56.064;26.178;2022-10-26T00:35:56;10.00;99.90
64226;DHT22;50545;56.064;26.178;2022-10-26T00:38:23;10.00;99.90
64226;DHT22;50545;56.064;26.178;2022-10-26T00:40:50;10.00;99.90
64226;DHT22;50545;56.064;26.178;2022-10-26T00:45:52;10.00;99.90
64226;DHT22;50545;56.064;26.178;2022-10-26T00:48:29;10.00;99.90
64226;DHT22;50545;56.064;26.178;2022-10-26T00:51:02;10.00;99.90
64226;DHT22;50545;56.064;26.178;2022-10-26T00:53:31;10.00;99.90
64226;DHT22;50545;56.064;26.178;2022-10-26T00:56:00;10.00;99.90
64226;DHT22;50545;56.064;26.178;2022-10-26T00:58:27;10.10;99.90
64226;DHT22;50545;56.064;26.178;2022-10-26T01:00:55;10.10;99.90
64226;DHT22;50545;56.064;26.178;2022-10-26T01:03:22;10.10;99.90
64226;DHT22;50545;56.064;26.178;2022-10-26T01:05:56;10.10;99.90
64226;DHT22;50545;56.064;26.178;2022-10-26T01:08:24;10.10;99.90
64226;DHT22;50545;56.064;26.178;2022-10-26T01:10:56;10.20;99.90
64226;DHT22;50545;56.064;26.178;2022-10-26T01:13:28;10.10;99.90
64226;DHT22;50545;56.064;26.178;2022-10-26T01:19:04;10.20;99.90
64226;DHT22;50545;56.064;26.178;2022-10-26T01:22:04;10.20;99.90
64226;DHT22;50545;56.064;26.178;2022-10-26T01:24:41;10.20;99.90
64226;DHT22;50545;56.064;26.178;2022-10-26T01:27:41;10.20;99.90
64226;DHT22;50545;56.064;26.178;2022-10-26T01:41:24;10.20;99.90
64226;DHT22;50545;56.064;26.178;2022-10-26T01:44:00;10.20;99.90
64226;DHT22;50545;56.064;26.178;2022-10-26T01:46:34;10.20;99.90
64226;DHT22;50545;56.064;26.178;2022-10-26T01:49:06;10.20;99.90
64226;DHT22;50545;56.064;26.178;2022-10-26T01:51:34;10.20;99.90
64226;DHT22;50545;56.064;26.178;2022-10-26T01:54:01;10.20;99.90
64226;DHT22;50545;56.064;26.178;2022-10-26T01:56:32;10.20;99.90
64226;DHT22;50545;56.064;26.178;2022-10-26T02:01:46;10.20;99.90
64226;DHT22;50545;56.064;26.178;2022-10-26T02:13:12;10.20;99.90
64226;DHT22;50545;56.064;26.178;2022-10-26T02:15:55;10.20;99.90
64226;DHT22;50545;56.064;26.178;2022-10-26T02:21:19;10.20;99.90
64226;DHT22;50545;56.064;26.178;2022-10-26T02:23:51;10.20;99.90
64226;DHT22;50545;56.064;26.178;2022-10-26T02:26:19;10.10;99.90
64226;DHT22;50545;56.064;26.178;2022-10-26T02:28:50;10.10;99.90
64226;DHT22;50545;56.064;26.178;2022-10-26T02:31:20;10.10;99.90
64226;DHT22;50545;56.064;26.178;2022-10-26T02:33:49;10.10;99.90
64226;DHT22;50545;56.064;26.178;2022-10-26T02:36:22;10.10;99.90
64226;DHT22;50545;56.064;26.178;2022-10-26T02:38:52;10.10;99.90
64226;DHT22;50545;56.064;26.178;2022-10-26T02:41:23;10.00;99.90
64226;DHT22;50545;56.064;26.178;2022-10-26T02:46:39;10.00;99.90
64226;DHT22;50545;56.064;26.178;2022-10-26T02:49:06;10.00;99.90
64226;DHT22;50545;56.064;26.178;2022-10-26T02:54:58;10.00;99.90
64226;DHT22;50545;56.064;26.178;2022-10-26T02:57:35;10.00;99.90
64226;DHT22;50545;56.064;26.178;2022-10-26T03:00:11;10.00;99.90
64226;DHT22;50545;56.064;26.178;2022-10-26T03:02:42;10.00;99.90
64226;DHT22;50545;56.064;26.178;2022-10-26T03:07:44;10.10;99.90
64226;DHT22;50545;56.064;26.178;2022-10-26T03:10:11;10.10;99.90
64226;DHT22;50545;56.064;26.178;2022-10-26T03:12:39;10.10;99.90
64226;DHT22;50545;56.064;26.178;2022-10-26T03:15:06;10.10;99.90
64226;DHT22;50545;56.064;26.178;2022-10-26T03:17:34;10.10;99.90
64226;DHT22;50545;56.064;26.178;2022-10-26T03:20:01;10.00;99.90
64226;DHT22;50545;56.064;26.178;2022-10-26T03:22:28;10.00;99.90
64226;DHT22;50545;56.064;26.178;2022-10-26T03:24:55;10.00;99.90
64226;DHT22;50545;56.064;26.178;2022-10-26T03:27:23;10.00;99.90
64226;DHT22;50545;56.064;26.178;2022-10-26T03:29:50;10.00;99.90
64226;DHT22;50545;56.064;26.178;2022-10-26T03:32:17;10.00;99.90
64226;DHT22;50545;56.064;26.178;2022-10-26T03:34:45;10.00;99.90
64226;DHT22;50545;56.064;26.178;2022-10-26T03:37:13;10.00;99.90
64226;DHT22;50545;56.064;26.178;2022-10-26T03:39:40;10.10;99.90
64226;DHT22;50545;56.064;26.178;2022-10-26T03:42:07;10.10;99.90
64226;DHT22;50545;56.064;26.178;2022-10-26T03:44:34;10.10;99.90
64226;DHT22;50545;56.064;26.178;2022-10-26T03:47:02;10.10;99.90
64226;DHT22;50545;56.064;26.178;2022-10-26T03:49:29;10.10;99.90
64226;DHT22;50545;56.064;26.178;2022-10-26T03:51:56;10.10;99.90
64226;DHT22;50545;56.064;26.178;2022-10-26T03:54:24;10.10;99.90
64226;DHT22;50545;56.064;26.178;2022-10-26T03:56:51;10.10;99.90
64226;DHT22;50545;56.064;26.178;2022-10-26T03:59:21;10.20;99.90
64226;DHT22;50545;56.064;26.178;2022-10-26T04:01:48;10.20;99.90
64226;DHT22;50545;56.064;26.178;2022-10-26T04:04:21;10.20;99.90
64226;DHT22;50545;56.064;26.178;2022-10-26T04:06:48;10.20;99.90
64226;DHT22;50545;56.064;26.178;2022-10-26T04:09:15;10.20;99.90
64226;DHT22;50545;56.064;26.178;2022-10-26T04:11:43;10.20;99.90
64226;DHT22;50545;56.064;26.178;2022-10-26T04:14:10;10.20;99.90
64226;DHT22;50545;56.064;26.178;2022-10-26T04:16:37;10.20;99.90
64226;DHT22;50545;56.064;26.178;2022-10-26T04:19:04;10.20;99.90
64226;DHT22;50545;56.064;26.178;2022-10-26T04:21:32;10.30;99.90
64226;DHT22;50545;56.064;26.178;2022-10-26T04:23:59;10.30;99.90
64226;DHT22;50545;56.064;26.178;2022-10-26T04:26:27;10.30;99.90
64226;DHT22;50545;56.064;26.178;2022-10-26T04:28:54;10.20;99.90
64226;DHT22;50545;56.064;26.178;2022-10-26T04:31:21;10.20;99.90
64226;DHT22;50545;56.064;26.178;2022-10-26T04:33:48;10.20;99.90
64226;DHT22;50545;56.064;26.178;2022-10-26T04:36:16;10.30;99.90
64226;DHT22;50545;56.064;26.178;2022-10-26T04:38:43;10.20;99.90
64226;DHT22;50545;56.064;26.178;2022-10-26T04:41:10;10.20;99.90
64226;DHT22;50545;56.064;26.178;2022-10-26T04:43:37;10.20;99.90
64226;DHT22;50545;56.064;26.178;2022-10-26T04:46:05;10.20;99.90
64226;DHT22;50545;56.064;26.178;2022-10-26T04:48:32;10.30;99.90
64226;DHT22;50545;56.064;26.178;2022-10-26T04:51:00;10.30;99.90
64226;DHT22;50545;56.064;26.178;2022-10-26T04:53:27;10.30;99.90
64226;DHT22;50545;56.064;26.178;2022-10-26T04:55:58;10.30;99.90
64226;DHT22;50545;56.064;26.178;2022-10-26T04:58:27;10.20;99.90
64226;DHT22;50545;56.064;26.178;2022-10-26T05:00:54;10.30;99.90
64226;DHT22;50545;56.064;26.178;2022-10-26T05:03:22;10.20;99.90
64226;DHT22;50545;56.064;26.178;2022-10-26T05:05:49;10.20;99.90
64226;DHT22;50545;56.064;26.178;2022-10-26T05:08:16;10.20;99.90
64226;DHT22;50545;56.064;26.178;2022-10-26T05:10:52;10.20;99.90
64226;DHT22;50545;56.064;26.178;2022-10-26T05:13:21;10.30;99.90
64226;DHT22;50545;56.064;26.178;2022-10-26T05:15:52;10.30;99.90
64226;DHT22;50545;56.064;26.178;2022-10-26T05:18:20;10.30;99.90
64226;DHT22;50545;56.064;26.178;2022-10-26T05:20:47;10.30;99.90
64226;DHT22;50545;56.064;26.178;2022-10-26T05:23:16;10.30;99.90
64226;DHT22;50545;56.064;26.178;2022-10-26T05:25:46;10.30;99.90
64226;DHT22;50545;56.064;26.178;2022-10-26T05:28:14;10.30;99.90
64226;DHT22;50545;56.064;26.178;2022-10-26T05:30:43;10.30;99.90
64226;DHT22;50545;56.064;26.178;2022-10-26T05:33:12;10.30;99.90
64226;DHT22;50545;56.064;26.178;2022-10-26T05:35:40;10.30;99.90
64226;DHT22;50545;56.064;26.178;2022-10-26T05:38:09;10.30;99.90
64226;DHT22;50545;56.064;26.178;2022-10-26T05:40:36;10.30;99.90
64226;DHT22;50545;56.064;26.178;2022-10-26T05:43:03;10.30;99.90
64226;DHT22;50545;56.064;26.178;2022-10-26T05:45:31;10.30;99.90
64226;DHT22;50545;56.064;26.178;2022-10-26T05:47:58;10.30;99.90
64226;DHT22;50545;56.064;26.178;2022-10-26T05:50:29;10.30;99.90
64226;DHT22;50545;56.064;26.178;2022-10-26T05:52:56;10.30;99.90
64226;DHT22;50545;56.064;26.178;2022-10-26T05:55:23;10.30;99.90
64226;DHT22;50545;56.064;26.178;2022-10-26T05:57:51;10.30;99.90
64226;DHT22;50545;56.064;26.178;2022-10-26T06:00:23;10.30;99.90
64226;DHT22;50545;56.064;26.178;2022-10-26T06:03:21;10.30;99.90
64226;DHT22;50545;56.064;26.178;2022-10-26T06:05:55;10.30;99.90
64226;DHT22;50545;56.064;26.178;2022-10-26T06:08:25;10.30;99.90
64226;DHT22;50545;56.064;26.178;2022-10-26T06:10:55;10.40;99.90
64226;DHT22;50545;56.064;26.178;2022-10-26T06:13:22;10.40;99.90
64226;DHT22;50545;56.064;26.178;2022-10-26T06:18:50;10.40;99.90
64226;DHT22;50545;56.064;26.178;2022-10-26T06:27:11;10.50;99.90
64226;DHT22;50545;56.064;26.178;2022-10-26T06:32:22;10.50;99.90
64226;DHT22;50545;56.064;26.178;2022-10-26T06:34:54;10.60;99.90
64226;DHT22;50545;56.064;26.178;2022-10-26T06:37:29;10.60;99.90
64226;DHT22;50545;56.064;26.178;2022-10-26T06:39:57;10.70;99.90
64226;DHT22;50545;56.064;26.178;2022-10-26T06:42:25;10.70;99.90
64226;DHT22;50545;56.064;26.178;2022-10-26T06:44:53;10.60;99.90
64226;DHT22;50545;56.064;26.178;2022-10-26T06:55:49;10.70;99.90
64226;DHT22;50545;56.064;26.178;2022-10-26T06:58:18;10.70;99.90
64226;DHT22;50545;56.064;26.178;2022-10-26T07:00:47;10.70;99.90
64226;DHT22;50545;56.064;26.178;2022-10-26T07:03:16;10.70;99.90
64226;DHT22;50545;56.064;26.178;2022-10-26T07:05:43;10.70;99.90
64226;DHT22;50545;56.064;26.178;2022-10-26T07:08:11;10.70;99.90
64226;DHT22;50545;56.064;26.178;2022-10-26T07:10:38;10.80;99.90
64226;DHT22;50545;56.064;26.178;2022-10-26T07:13:06;10.80;99.90
64226;DHT22;50545;56.064;26.178;2022-10-26T07:15:35;10.80;99.90
64226;DHT22;50545;56.064;26.178;2022-10-26T07:18:04;10.80;99.90
64226;DHT22;50545;56.064;26.178;2022-10-26T07:20:35;10.90;99.90
64226;DHT22;50545;56.064;26.178;2022-10-26T07:23:03;10.80;99.90
64226;DHT22;50545;56.064;26.178;2022-10-26T07:25:33;10.90;99.90
64226;DHT22;50545;56.064;26.178;2022-10-26T07:28:01;10.90;99.90
64226;DHT22;50545;56.064;26.178;2022-10-26T07:30:29;10.90;99.90
64226;DHT22;50545;56.064;26.178;2022-10-26T07:33:03;10.80;99.90
64226;DHT22;50545;56.064;26.178;2022-10-26T07:35:32;10.80;99.90
64226;DHT22;50545;56.064;26.178;2022-10-26T07:38:00;10.80;99.90
64226;DHT22;50545;56.064;26.178;2022-10-26T07:40:27;10.90;99.90
64226;DHT22;50545;56.064;26.178;2022-10-26T07:42:58;10.90;99.90
64226;DHT22;50545;56.064;26.178;2022-10-26T07:45:27;10.90;99.90
64226;DHT22;50545;56.064;26.178;2022-10-26T07:47:55;10.90;99.90
64226;DHT22;50545;56.064;26.178;2022-10-26T07:50:23;11.00;99.90
64226;DHT22;50545;56.064;26.178;2022-10-26T07:52:50;11.00;99.90
64226;DHT22;50545;56.064;26.178;2022-10-26T07:55:18;11.10;99.90
64226;DHT22;50545;56.064;26.178;2022-10-26T07:57:46;11.10;99.90
64226;DHT22;50545;56.064;26.178;2022-10-26T08:00:20;11.10;99.90
64226;DHT22;50545;56.064;26.178;2022-10-26T08:02:47;11.20;99.90
64226;DHT22;50545;56.064;26.178;2022-10-26T08:05:14;11.20;99.90
64226;DHT22;50545;56.064;26.178;2022-10-26T08:07:45;11.30;99.90
64226;DHT22;50545;56.064;26.178;2022-10-26T08:10:13;11.30;99.90
64226;DHT22;50545;56.064;26.178;2022-10-26T08:12:43;11.30;99.90
64226;DHT22;50545;56.064;26.178;2022-10-26T08:15:10;11.40;99.90
64226;DHT22;50545;56.064;26.178;2022-10-26T08:17:38;11.40;99.90
64226;DHT22;50545;56.064;26.178;2022-10-26T08:20:05;11.40;99.90
64226;DHT22;50545;56.064;26.178;2022-10-26T08:22:33;11.40;99.90
64226;DHT22;50545;56.064;26.178;2022-10-26T08:25:00;11.40;99.90
64226;DHT22;50545;56.064;26.178;2022-10-26T08:27:27;11.40;99.90
64226;DHT22;50545;56.064;26.178;2022-10-26T08:29:54;11.40;99.90
64226;DHT22;50545;56.064;26.178;2022-10-26T08:32:21;11.40;99.90
64226;DHT22;50545;56.064;26.178;2022-10-26T08:34:48;11.50;99.90
64226;DHT22;50545;56.064;26.178;2022-10-26T08:37:15;11.50;99.90
64226;DHT22;50545;56.064;26.178;2022-10-26T08:39:43;11.50;99.90
64226;DHT22;50545;56.064;26.178;2022-10-26T08:42:17;11.50;99.90
64226;DHT22;50545;56.064;26.178;2022-10-26T08:44:46;11.50;99.90
64226;DHT22;50545;56.064;26.178;2022-10-26T08:47:22;11.50;99.90
64226;DHT22;50545;56.064;26.178;2022-10-26T08:50:01;11.60;99.90
64226;DHT22;50545;56.064;26.178;2022-10-26T08:52:49;11.70;99.90
64226;DHT22;50545;56.064;26.178;2022-10-26T08:55:24;11.80;99.90
64226;DHT22;50545;56.064;26.178;2022-10-26T08:57:53;11.80;99.90
64226;DHT22;50545;56.064;26.178;2022-10-26T09:00:22;11.80;99.90
64226;DHT22;50545;56.064;26.178;2022-10-26T09:02:52;11.80;99.90
64226;DHT22;50545;56.064;26.178;2022-10-26T09:05:49;11.80;99.90
64226;DHT22;50545;56.064;26.178;2022-10-26T09:11:27;11.90;99.90
64226;DHT22;50545;56.064;26.178;2022-10-26T09:14:16;12.00;99.90
64226;DHT22;50545;56.064;26.178;2022-10-26T09:24:54;12.40;99.90
64226;DHT22;50545;56.064;26.178;2022-10-26T09:27:39;12.50;99.90
64226;DHT22;50545;56.064;26.178;2022-10-26T09:30:21;12.60;99.90
64226;DHT22;50545;56.064;26.178;2022-10-26T09:32:52;12.60;99.90
64226;DHT22;50545;56.064;26.178;2022-10-26T09:35:45;12.60;99.90
64226;DHT22;50545;56.064;26.178;2022-10-26T09:46:19;12.70;99.90
64226;DHT22;50545;56.064;26.178;2022-10-26T09:48:54;12.70;99.90
64226;DHT22;50545;56.064;26.178;2022-10-26T09:51:24;12.70;99.90
64226;DHT22;50545;56.064;26.178;2022-10-26T09:53:55;12.70;99.90
64226;DHT22;50545;56.064;26.178;2022-10-26T09:56:24;12.80;99.90
64226;DHT22;50545;56.064;26.178;2022-10-26T09:58:59;12.90;99.90
64226;DHT22;50545;56.064;26.178;2022-10-26T10:06:40;13.20;99.90
64226;DHT22;50545;56.064;26.178;2022-10-26T10:09:13;13.20;99.90
64226;DHT22;50545;56.064;26.178;2022-10-26T10:12:01;13.30;99.90
64226;DHT22;50545;56.064;26.178;2022-10-26T10:14:37;13.40;99.90
64226;DHT22;50545;56.064;26.178;2022-10-26T10:17:24;13.30;99.90
64226;DHT22;50545;56.064;26.178;2022-10-26T10:19:51;13.30;99.90
64226;DHT22;50545;56.064;26.178;2022-10-26T10:22:24;13.30;99.90
64226;DHT22;50545;56.064;26.178;2022-10-26T10:24:56;13.30;99.90
64226;DHT22;50545;56.064;26.178;2022-10-26T10:27:24;13.30;99.90
64226;DHT22;50545;56.064;26.178;2022-10-26T10:29:56;13.20;99.90
64226;DHT22;50545;56.064;26.178;2022-10-26T10:32:31;13.20;99.90
64226;DHT22;50545;56.064;26.178;2022-10-26T10:35:27;13.10;99.90
64226;DHT22;50545;56.064;26.178;2022-10-26T10:37:55;13.00;99.90
64226;DHT22;50545;56.064;26.178;2022-10-26T10:40:27;13.00;99.90
64226;DHT22;50545;56.064;26.178;2022-10-26T10:43:12;12.90;99.90
64226;DHT22;50545;56.064;26.178;2022-10-26T10:45:40;12.90;99.90
64226;DHT22;50545;56.064;26.178;2022-10-26T10:50:55;12.90;99.90
64226;DHT22;50545;56.064;26.178;2022-10-26T11:01:51;12.90;99.90
64226;DHT22;50545;56.064;26.178;2022-10-26T11:06:55;12.90;99.90
64226;DHT22;50545;56.064;26.178;2022-10-26T11:09:28;12.90;99.90
64226;DHT22;50545;56.064;26.178;2022-10-26T11:12:02;13.00;99.90
64226;DHT22;50545;56.064;26.178;2022-10-26T11:14:38;13.10;99.90
64226;DHT22;50545;56.064;26.178;2022-10-26T11:19:59;13.20;99.90
64226;DHT22;50545;56.064;26.178;2022-10-26T11:22:35;13.30;99.90
64226;DHT22;50545;56.064;26.178;2022-10-26T11:25:06;13.30;99.90
64226;DHT22;50545;56.064;26.178;2022-10-26T11:27:53;13.30;99.90
64226;DHT22;50545;56.064;26.178;2022-10-26T11:30:23;13.30;99.90
64226;DHT22;50545;56.064;26.178;2022-10-26T11:33:00;13.20;99.90
64226;DHT22;50545;56.064;26.178;2022-10-26T11:36:09;13.20;99.90
64226;DHT22;50545;56.064;26.178;2022-10-26T11:39:33;13.10;99.90
64226;DHT22;50545;56.064;26.178;2022-10-26T11:42:12;13.00;99.90
64226;DHT22;50545;56.064;26.178;2022-10-26T11:47:51;13.00;99.90
64226;DHT22;50545;56.064;26.178;2022-10-26T11:50:26;13.00;99.90
64226;DHT22;50545;56.064;26.178;2022-10-26T11:53:15;13.10;99.90
64226;DHT22;50545;56.064;26.178;2022-10-26T11:55:53;13.10;99.90
64226;DHT22;50545;56.064;26.178;2022-10-26T11:58:24;13.10;99.90
64226;DHT22;50545;56.064;26.178;2022-10-26T12:00:57;13.10;99.90
64226;DHT22;50545;56.064;26.178;2022-10-26T12:03:32;13.20;99.90
64226;DHT22;50545;56.064;26.178;2022-10-26T12:05:59;13.20;99.90
64226;DHT22;50545;56.064;26.178;2022-10-26T12:08:29;13.30;99.90
64226;DHT22;50545;56.064;26.178;2022-10-26T12:17:01;13.30;99.90
64226;DHT22;50545;56.064;26.178;2022-10-26T12:22:10;13.30;99.90
64226;DHT22;50545;56.064;26.178;2022-10-26T12:24:43;13.20;99.90
64226;DHT22;50545;56.064;26.178;2022-10-26T12:43:37;13.30;99.90
64226;DHT22;50545;56.064;26.178;2022-10-26T12:48:42;13.30;99.90
64226;DHT22;50545;56.064;26.178;2022-10-26T12:56:56;13.10;99.90
64226;DHT22;50545;56.064;26.178;2022-10-26T13:07:35;12.70;99.90
64226;DHT22;50545;56.064;26.178;2022-10-26T13:15:23;12.50;99.90
64226;DHT22;50545;56.064;26.178;2022-10-26T13:20:36;12.50;99.90
64226;DHT22;50545;56.064;26.178;2022-10-26T13:23:23;12.40;99.90
64226;DHT22;50545;56.064;26.178;2022-10-26T13:26:08;12.50;99.90
64226;DHT22;50545;56.064;26.178;2022-10-26T13:39:43;12.40;99.90
64226;DHT22;50545;56.064;26.178;2022-10-26T13:42:19;12.40;99.90
64226;DHT22;50545;56.064;26.178;2022-10-26T13:45:00;12.40;99.90
64226;DHT22;50545;56.064;26.178;2022-10-26T13:48:11;12.40;99.90
64226;DHT22;50545;56.064;26.178;2022-10-26T13:50:47;12.40;99.90
64226;DHT22;50545;56.064;26.178;2022-10-26T13:53:40;12.40;99.90
64226;DHT22;50545;56.064;26.178;2022-10-26T13:59:13;12.40;99.90
64226;DHT22;50545;56.064;26.178;2022-10-26T14:01:37;12.30;99.90
64226;DHT22;50545;56.064;26.178;2022-10-26T14:04:26;12.30;99.90
64226;DHT22;50545;56.064;26.178;2022-10-26T14:06:54;12.30;99.90
64226;DHT22;50545;56.064;26.178;2022-10-26T14:09:22;12.30;99.90
64226;DHT22;50545;56.064;26.178;2022-10-26T14:11:55;12.20;99.90
64226;DHT22;50545;56.064;26.178;2022-10-26T14:14:36;12.20;99.90
64226;DHT22;50545;56.064;26.178;2022-10-26T14:17:03;12.20;99.90
64226;DHT22;50545;56.064;26.178;2022-10-26T14:21:59;12.10;99.90
64226;DHT22;50545;56.064;26.178;2022-10-26T14:24:28;12.10;99.90
64226;DHT22;50545;56.064;26.178;2022-10-26T14:27:20;12.00;99.90
64226;DHT22;50545;56.064;26.178;2022-10-26T14:29:48;12.00;99.90
64226;DHT22;50545;56.064;26.178;2022-10-26T14:32:36;11.90;99.90
64226;DHT22;50545;56.064;26.178;2022-10-26T14:35:03;11.80;99.90
64226;DHT22;50545;56.064;26.178;2022-10-26T14:37:56;11.70;99.90
64226;DHT22;50545;56.064;26.178;2022-10-26T14:40:28;11.70;99.90
64226;DHT22;50545;56.064;26.178;2022-10-26T14:42:58;11.70;99.90
64226;DHT22;50545;56.064;26.178;2022-10-26T14:45:38;11.60;99.90
64226;DHT22;50545;56.064;26.178;2022-10-26T14:48:30;11.50;99.90
64226;DHT22;50545;56.064;26.178;2022-10-26T14:51:14;11.50;99.90
64226;DHT22;50545;56.064;26.178;2022-10-26T14:53:48;11.40;99.90
64226;DHT22;50545;56.064;26.178;2022-10-26T14:59:24;11.40;99.90
64226;DHT22;50545;56.064;26.178;2022-10-26T15:04:38;11.30;99.90
64226;DHT22;50545;56.064;26.178;2022-10-26T15:07:16;11.30;99.90
64226;DHT22;50545;56.064;26.178;2022-10-26T15:09:46;11.20;99.90
64226;DHT22;50545;56.064;26.178;2022-10-26T15:12:32;11.30;99.90
64226;DHT22;50545;56.064;26.178;2022-10-26T15:17:53;11.20;99.90
64226;DHT22;50545;56.064;26.178;2022-10-26T15:20:26;11.20;99.90
64226;DHT22;50545;56.064;26.178;2022-10-26T15:22:55;11.30;99.90
64226;DHT22;50545;56.064;26.178;2022-10-26T15:25:32;11.20;99.90
64226;DHT22;50545;56.064;26.178;2022-10-26T15:28:31;11.30;99.90
64226;DHT22;50545;56.064;26.178;2022-10-26T15:33:42;11.30;99.90
64226;DHT22;50545;56.064;26.178;2022-10-26T15:36:15;11.30;99.90
64226;DHT22;50545;56.064;26.178;2022-10-26T15:38:44;11.30;99.90
64226;DHT22;50545;56.064;26.178;2022-10-26T15:41:32;11.30;99.90
64226;DHT22;50545;56.064;26.178;2022-10-26T15:44:15;11.30;99.90
64226;DHT22;50545;56.064;26.178;2022-10-26T15:46:43;11.30;99.90
64226;DHT22;50545;56.064;26.178;2022-10-26T15:49:19;11.30;99.90
64226;DHT22;50545;56.064;26.178;2022-10-26T15:51:47;11.30;99.90
64226;DHT22;50545;56.064;26.178;2022-10-26T15:54:15;11.30;99.90
64226;DHT22;50545;56.064;26.178;2022-10-26T15:56:42;11.40;99.90
64226;DHT22;50545;56.064;26.178;2022-10-26T15:59:15;11.40;99.90
64226;DHT22;50545;56.064;26.178;2022-10-26T16:01:42;11.40;99.90
64226;DHT22;50545;56.064;26.178;2022-10-26T16:04:10;11.40;99.90
64226;DHT22;50545;56.064;26.178;2022-10-26T16:06:40;11.40;99.90
64226;DHT22;50545;56.064;26.178;2022-10-26T16:09:12;11.40;99.90
64226;DHT22;50545;56.064;26.178;2022-10-26T16:11:40;11.40;99.90
64226;DHT22;50545;56.064;26.178;2022-10-26T16:14:09;11.30;99.90
64226;DHT22;50545;56.064;26.178;2022-10-26T16:16:36;11.30;99.90
64226;DHT22;50545;56.064;26.178;2022-10-26T16:19:04;11.40;99.90
64226;DHT22;50545;56.064;26.178;2022-10-26T16:21:51;11.40;99.90
64226;DHT22;50545;56.064;26.178;2022-10-26T16:24:19;11.30;99.90
64226;DHT22;50545;56.064;26.178;2022-10-26T16:26:46;11.30;99.90
64226;DHT22;50545;56.064;26.178;2022-10-26T16:29:13;11.40;99.90
64226;DHT22;50545;56.064;26.178;2022-10-26T16:31:41;11.30;99.90
64226;DHT22;50545;56.064;26.178;2022-10-26T16:34:08;11.30;99.90
64226;DHT22;50545;56.064;26.178;2022-10-26T16:36:35;11.30;99.90
64226;DHT22;50545;56.064;26.178;2022-10-26T16:39:05;11.20;99.90
64226;DHT22;50545;56.064;26.178;2022-10-26T16:41:32;11.20;99.90
64226;DHT22;50545;56.064;26.178;2022-10-26T16:44:00;11.20;99.90
64226;DHT22;50545;56.064;26.178;2022-10-26T16:46:27;11.20;99.90
64226;DHT22;50545;56.064;26.178;2022-10-26T16:48:55;11.20;99.90
64226;DHT22;50545;56.064;26.178;2022-10-26T16:51:25;11.20;99.90
64226;DHT22;50545;56.064;26.178;2022-10-26T16:53:55;11.20;99.90
64226;DHT22;50545;56.064;26.178;2022-10-26T16:56:28;11.20;99.90
64226;DHT22;50545;56.064;26.178;2022-10-26T16:58:57;11.20;99.90
64226;DHT22;50545;56.064;26.178;2022-10-26T17:01:24;11.20;99.90
64226;DHT22;50545;56.064;26.178;2022-10-26T17:03:52;11.20;99.90
64226;DHT22;50545;56.064;26.178;2022-10-26T17:06:20;11.20;99.90
64226;DHT22;50545;56.064;26.178;2022-10-26T17:08:48;11.20;99.90
64226;DHT22;50545;56.064;26.178;2022-10-26T17:11:18;11.20;99.90
64226;DHT22;50545;56.064;26.178;2022-10-26T17:13:46;11.20;99.90
64226;DHT22;50545;56.064;26.178;2022-10-26T17:16:17;11.10;99.90
64226;DHT22;50545;56.064;26.178;2022-10-26T17:18:46;11.10;99.90
64226;DHT22;50545;56.064;26.178;2022-10-26T17:21:16;11.10;99.90
64226;DHT22;50545;56.064;26.178;2022-10-26T17:23:44;11.10;99.90
64226;DHT22;50545;56.064;26.178;2022-10-26T17:26:13;11.10;99.90
64226;DHT22;50545;56.064;26.178;2022-10-26T17:28:41;11.00;99.90
64226;DHT22;50545;56.064;26.178;2022-10-26T17:31:13;11.00;99.90
64226;DHT22;50545;56.064;26.178;2022-10-26T17:33:43;10.90;99.90
64226;DHT22;50545;56.064;26.178;2022-10-26T17:36:13;10.90;99.90
64226;DHT22;50545;56.064;26.178;2022-10-26T17:38:42;10.90;99.90
64226;DHT22;50545;56.064;26.178;2022-10-26T17:41:12;10.90;99.90
64226;DHT22;50545;56.064;26.178;2022-10-26T17:43:41;10.90;99.90
64226;DHT22;50545;56.064;26.178;2022-10-26T17:46:13;10.80;99.90
64226;DHT22;50545;56.064;26.178;2022-10-26T17:48:41;10.80;99.90
64226;DHT22;50545;56.064;26.178;2022-10-26T17:51:14;10.80;99.90
64226;DHT22;50545;56.064;26.178;2022-10-26T17:53:45;10.80;99.90
64226;DHT22;50545;56.064;26.178;2022-10-26T17:56:16;10.80;99.90
64226;DHT22;50545;56.064;26.178;2022-10-26T17:58:44;10.80;99.90
64226;DHT22;50545;56.064;26.178;2022-10-26T18:01:12;10.80;99.90
64226;DHT22;50545;56.064;26.178;2022-10-26T18:03:40;10.80;99.90
64226;DHT22;50545;56.064;26.178;2022-10-26T18:06:08;10.80;99.90
64226;DHT22;50545;56.064;26.178;2022-10-26T18:08:37;10.70;99.90
64226;DHT22;50545;56.064;26.178;2022-10-26T18:11:09;10.70;99.90
64226;DHT22;50545;56.064;26.178;2022-10-26T18:13:37;10.70;99.90
64226;DHT22;50545;56.064;26.178;2022-10-26T18:16:07;10.70;99.90
64226;DHT22;50545;56.064;26.178;2022-10-26T18:18:35;10.70;99.90
64226;DHT22;50545;56.064;26.178;2022-10-26T18:21:05;10.70;99.90
64226;DHT22;50545;56.064;26.178;2022-10-26T18:23:33;10.70;99.90
64226;DHT22;50545;56.064;26.178;2022-10-26T18:26:19;10.70;99.90
64226;DHT22;50545;56.064;26.178;2022-10-26T18:28:47;10.70;99.90
64226;DHT22;50545;56.064;26.178;2022-10-26T18:31:17;10.70;99.90
64226;DHT22;50545;56.064;26.178;2022-10-26T18:33:45;10.70;99.90
64226;DHT22;50545;56.064;26.178;2022-10-26T18:36:15;10.70;99.90
64226;DHT22;50545;56.064;26.178;2022-10-26T18:38:43;10.60;99.90
64226;DHT22;50545;56.064;26.178;2022-10-26T18:41:13;10.60;99.90
64226;DHT22;50545;56.064;26.178;2022-10-26T18:43:42;10.60;99.90